createdAt,value
2019-05-20T00:00:33.018Z,16.74
2019-05-20T00:03:01.714Z,16.74
2019-05-20T00:05:30.501Z,17.05
2019-05-20T00:07:59.282Z,16.92
2019-05-20T00:10:27.974Z,16.82
2019-05-20T00:12:56.548Z,16.78
2019-05-20T00:15:25.286Z,16.85
2019-05-20T00:17:53.947Z,16.69
2019-05-20T00:20:22.801Z,16.68
2019-05-20T00:22:51.503Z,16.32
2019-05-20T00:25:20.217Z,16.04
2019-05-20T00:27:48.937Z,15.96
2019-05-20T00:30:18.195Z,16.13
2019-05-20T00:32:46.848Z,15.95
2019-05-20T00:35:15.564Z,16.02
2019-05-20T00:37:44.348Z,16.27
2019-05-20T00:40:13.423Z,16.09
2019-05-20T00:42:42.157Z,16.06
2019-05-20T00:45:11.284Z,15.94
2019-05-20T00:47:39.924Z,15.79
2019-05-20T00:50:08.878Z,15.87
2019-05-20T00:52:37.529Z,15.85
2019-05-20T00:55:10.616Z,15.75
2019-05-20T00:57:39.320Z,15.81
2019-05-20T01:00:09.074Z,15.93
2019-05-20T01:02:37.804Z,16.20
2019-05-20T01:05:06.611Z,16.19
2019-05-20T01:07:35.246Z,16.13
2019-05-20T01:12:32.013Z,16.23
2019-05-20T01:15:00.665Z,16.18
2019-05-20T01:17:29.371Z,16.25
2019-05-20T01:19:58.391Z,16.45
2019-05-20T01:22:27.092Z,16.45
2019-05-20T01:24:55.814Z,16.00
2019-05-20T01:27:24.472Z,15.89
2019-05-20T01:29:53.107Z,15.78
2019-05-20T01:32:21.800Z,15.83
2019-05-20T01:34:50.533Z,15.86
2019-05-20T01:37:19.282Z,15.88
2019-05-20T01:39:48.173Z,15.99
2019-05-20T01:42:16.842Z,16.19
2019-05-20T01:44:45.561Z,16.07
2019-05-20T01:47:14.238Z,16.07
2019-05-20T01:49:42.929Z,16.09
2019-05-20T01:52:11.679Z,16.21
2019-05-20T01:54:40.365Z,16.03
2019-05-20T01:57:09.085Z,16.05
2019-05-20T01:59:37.671Z,15.97
2019-05-20T02:02:06.462Z,15.82
2019-05-20T02:04:35.106Z,15.97
2019-05-20T02:07:03.837Z,15.90
2019-05-20T02:09:32.735Z,15.69
2019-05-20T02:12:01.461Z,15.59
2019-05-20T02:14:31.757Z,15.59
2019-05-20T02:17:02.698Z,15.18
2019-05-20T02:19:31.039Z,15.23
2019-05-20T02:21:59.655Z,15.25
2019-05-20T02:24:28.266Z,15.35
2019-05-20T02:26:56.915Z,15.21
2019-05-20T02:29:25.653Z,15.40
2019-05-20T02:31:54.396Z,15.42
2019-05-20T02:34:23.071Z,15.64
2019-05-20T02:36:51.698Z,15.50
2019-05-20T02:39:20.805Z,15.51
2019-05-20T02:41:49.425Z,15.79
2019-05-20T02:44:18.134Z,15.69
2019-05-20T02:46:46.912Z,15.32
2019-05-20T02:49:15.547Z,14.98
2019-05-20T02:51:44.204Z,15.17
2019-05-20T02:54:12.987Z,15.11
2019-05-20T02:56:41.704Z,15.06
2019-05-20T02:59:10.347Z,15.19
2019-05-20T03:01:39.053Z,15.20
2019-05-20T03:04:12.219Z,15.20
2019-05-20T03:06:38.134Z,15.27
2019-05-20T03:09:06.945Z,15.25
2019-05-20T03:11:35.517Z,15.17
2019-05-20T03:14:04.351Z,15.20
2019-05-20T03:16:33.120Z,15.41
2019-05-20T03:19:01.761Z,15.39
2019-05-20T03:21:30.350Z,15.33
2019-05-20T03:23:59.170Z,15.65
2019-05-20T03:26:27.893Z,16.14
2019-05-20T03:28:56.724Z,15.72
2019-05-20T03:31:25.661Z,15.72
2019-05-20T03:33:54.389Z,15.92
2019-05-20T03:36:23.044Z,15.64
2019-05-20T03:38:51.743Z,15.64
2019-05-20T03:41:20.573Z,16.00
2019-05-20T03:43:49.309Z,15.97
2019-05-20T03:46:18.076Z,15.97
2019-05-20T03:48:46.756Z,16.16
2019-05-20T03:51:15.423Z,16.08
2019-05-20T03:53:44.192Z,16.17
2019-05-20T03:56:12.923Z,16.15
2019-05-20T03:58:41.550Z,16.14
2019-05-20T04:01:10.383Z,16.59
2019-05-20T04:03:39.047Z,16.27
2019-05-20T04:06:07.754Z,16.27
2019-05-20T04:08:36.510Z,15.90
2019-05-20T04:11:05.421Z,15.58
2019-05-20T04:13:35.008Z,15.52
2019-05-20T04:16:04.047Z,15.35
2019-05-20T04:18:32.768Z,15.86
2019-05-20T04:21:01.493Z,15.92
2019-05-20T04:23:30.192Z,16.38
2019-05-20T04:25:58.905Z,16.49
2019-05-20T04:28:27.750Z,16.69
2019-05-20T04:30:57.426Z,16.86
2019-05-20T04:33:26.031Z,16.97
2019-05-20T04:35:54.739Z,17.35
2019-05-20T04:38:23.461Z,17.09
2019-05-20T04:40:52.134Z,16.76
2019-05-20T04:43:20.859Z,16.68
2019-05-20T04:45:50.582Z,17.09
2019-05-20T04:48:19.250Z,17.09
2019-05-20T04:50:48.043Z,17.18
2019-05-20T04:53:16.721Z,17.12
2019-05-20T04:55:45.456Z,17.14
2019-05-20T04:58:14.169Z,17.02
2019-05-20T05:00:51.244Z,17.28
2019-05-20T05:03:20.051Z,17.26
2019-05-20T05:05:50.512Z,17.86
2019-05-20T05:08:20.796Z,17.52
2019-05-20T05:10:49.879Z,17.39
2019-05-20T05:13:18.599Z,17.69
2019-05-20T05:15:47.369Z,18.05
2019-05-20T05:18:16.071Z,18.24
2019-05-20T05:20:44.791Z,17.74
2019-05-20T05:23:13.552Z,18.08
2019-05-20T05:25:42.423Z,18.23
2019-05-20T05:28:11.141Z,18.58
2019-05-20T05:30:40.787Z,18.51
2019-05-20T05:33:09.569Z,18.16
2019-05-20T05:35:52.374Z,18.32
2019-05-20T05:38:08.859Z,18.83
2019-05-20T05:40:37.607Z,18.83
2019-05-20T05:43:06.256Z,19.46
2019-05-20T05:45:35.239Z,19.37
2019-05-20T05:48:04.022Z,19.40
2019-05-20T05:50:32.782Z,19.70
2019-05-20T05:53:01.430Z,20.07
2019-05-20T05:55:30.137Z,20.65
2019-05-20T05:57:58.907Z,20.40
2019-05-20T06:00:27.638Z,21.04
2019-05-20T06:02:56.475Z,21.45
2019-05-20T06:05:25.208Z,22.01
2019-05-20T06:07:54.168Z,21.58
2019-05-20T06:10:23.530Z,21.33
2019-05-20T06:12:52.254Z,21.30
2019-05-20T06:15:21.077Z,21.42
2019-05-20T06:17:49.725Z,20.98
2019-05-20T06:20:20.023Z,21.67
2019-05-20T06:22:48.744Z,21.46
2019-05-20T06:25:17.785Z,21.28
2019-05-20T06:27:46.409Z,21.41
2019-05-20T06:30:15.742Z,21.14
2019-05-20T06:32:44.521Z,22.15
2019-05-20T06:35:13.506Z,21.98
2019-05-20T06:37:44.153Z,21.73
2019-05-20T06:40:14.923Z,22.28
2019-05-20T06:42:43.653Z,22.28
2019-05-20T06:45:12.605Z,21.97
2019-05-20T06:47:41.320Z,22.77
2019-05-20T06:50:11.384Z,23.17
2019-05-20T06:52:42.837Z,22.92
2019-05-20T06:55:29.068Z,23.23
2019-05-20T06:57:58.008Z,23.63
2019-05-20T07:00:35.311Z,23.19
2019-05-20T07:03:04.677Z,22.88
2019-05-20T07:05:33.653Z,23.50
2019-05-20T07:08:02.302Z,23.50
2019-05-20T07:10:31.511Z,23.58
2019-05-20T07:13:00.271Z,24.12
2019-05-20T07:15:29.006Z,24.18
2019-05-20T07:17:57.824Z,24.08
2019-05-20T07:20:26.540Z,24.35
2019-05-20T07:22:56.749Z,24.44
2019-05-20T07:25:25.670Z,24.10
2019-05-20T07:27:54.565Z,24.61
2019-05-20T07:30:23.661Z,24.62
2019-05-20T07:33:10.701Z,25.31
2019-05-20T07:35:41.014Z,24.80
2019-05-20T07:38:15.511Z,25.11
2019-05-20T07:40:44.122Z,24.98
2019-05-20T07:43:13.009Z,25.42
2019-05-20T07:45:42.387Z,25.27
2019-05-20T07:48:11.026Z,24.77
2019-05-20T07:50:41.384Z,24.19
2019-05-20T07:53:11.621Z,24.63
2019-05-20T07:55:58.341Z,24.58
2019-05-20T07:58:33.477Z,24.50
2019-05-20T08:01:00.176Z,24.62
2019-05-20T08:03:30.283Z,24.99
2019-05-20T08:05:58.965Z,25.73
2019-05-20T08:08:27.689Z,26.03
2019-05-20T08:10:57.956Z,24.94
2019-05-20T08:13:26.936Z,24.05
2019-05-20T08:15:55.641Z,24.51
2019-05-20T08:18:24.328Z,24.87
2019-05-20T08:20:53.028Z,24.67
2019-05-20T08:23:21.712Z,25.48
2019-05-20T08:25:50.369Z,24.84
2019-05-20T08:28:19.191Z,25.72
2019-05-20T08:30:47.942Z,26.39
2019-05-20T08:33:16.669Z,24.99
2019-05-20T08:35:45.366Z,24.27
2019-05-20T08:38:14.146Z,24.42
2019-05-20T08:40:43.027Z,24.51
2019-05-20T08:43:11.885Z,25.34
2019-05-20T08:45:40.570Z,24.65
2019-05-20T08:48:10.154Z,24.28
2019-05-20T08:50:38.836Z,24.79
2019-05-20T08:53:07.498Z,24.04
2019-05-20T08:55:39.185Z,23.40
2019-05-20T08:58:07.907Z,23.64
2019-05-20T09:00:36.667Z,23.82
2019-05-20T09:03:05.437Z,23.88
2019-05-20T09:05:34.093Z,22.89
2019-05-20T09:08:04.133Z,22.65
2019-05-20T09:10:33.083Z,22.45
2019-05-20T09:13:01.752Z,22.07
2019-05-20T09:15:36.524Z,22.29
2019-05-20T09:18:05.316Z,22.13
2019-05-20T09:20:44.955Z,22.03
2019-05-20T09:23:13.664Z,22.47
2019-05-20T09:25:42.382Z,22.59
2019-05-20T09:28:11.181Z,23.55
2019-05-20T09:30:42.447Z,22.74
2019-05-20T09:33:11.180Z,22.40
2019-05-20T09:35:39.947Z,22.31
2019-05-20T09:38:21.178Z,22.37
2019-05-20T09:40:50.124Z,22.40
2019-05-20T09:43:18.954Z,22.37
2019-05-20T09:46:05.283Z,22.57
2019-05-20T09:48:18.085Z,22.86
2019-05-20T09:50:46.738Z,22.81
2019-05-20T09:53:15.514Z,22.23
2019-05-20T09:55:44.165Z,22.22
2019-05-20T09:58:12.814Z,22.57
2019-05-20T10:00:41.646Z,22.32
2019-05-20T10:03:10.329Z,21.99
2019-05-20T10:05:39.879Z,21.89
2019-05-20T10:08:08.660Z,21.97
2019-05-20T10:10:37.401Z,21.86
2019-05-20T10:13:06.538Z,21.56
2019-05-20T10:15:35.674Z,21.52
2019-05-20T10:18:04.406Z,21.85
2019-05-20T10:20:33.192Z,21.74
2019-05-20T10:23:01.928Z,21.65
2019-05-20T10:25:30.701Z,22.07
2019-05-20T10:27:59.437Z,22.62
2019-05-20T10:30:28.175Z,22.65
2019-05-20T10:32:56.868Z,22.70
2019-05-20T10:35:25.539Z,22.60
2019-05-20T10:37:54.201Z,22.71
2019-05-20T10:40:23.052Z,22.61
2019-05-20T10:42:51.752Z,22.27
2019-05-20T10:45:20.576Z,21.98
2019-05-20T10:47:49.427Z,22.44
2019-05-20T10:50:18.443Z,22.75
2019-05-20T10:52:47.213Z,23.21
2019-05-20T10:55:16.305Z,23.75
2019-05-20T10:57:45.004Z,23.74
2019-05-20T11:00:14.037Z,23.25
2019-05-20T11:02:42.809Z,23.27
2019-05-20T11:05:11.621Z,23.30
2019-05-20T11:07:40.308Z,23.00
2019-05-20T11:10:09.249Z,22.93
2019-05-20T11:12:38.095Z,22.86
2019-05-20T11:15:07.542Z,22.34
2019-05-20T11:17:36.273Z,22.36
2019-05-20T11:20:06.764Z,22.33
2019-05-20T11:22:37.081Z,22.09
2019-05-20T11:25:07.165Z,22.17
2019-05-20T11:27:35.855Z,21.89
2019-05-20T11:30:07.444Z,21.87
2019-05-20T11:32:36.162Z,21.63
2019-05-20T11:35:06.701Z,21.03
2019-05-20T11:37:35.417Z,20.85
2019-05-20T11:40:07.094Z,21.09
2019-05-20T11:42:35.941Z,20.92
2019-05-20T11:45:07.069Z,20.72
2019-05-20T11:47:35.793Z,19.75
2019-05-20T11:50:07.458Z,19.51
2019-05-20T11:52:36.174Z,19.28
2019-05-20T11:55:06.032Z,18.65
2019-05-20T11:57:34.725Z,18.52
2019-05-20T12:00:05.260Z,18.28
2019-05-20T12:02:33.949Z,17.97
2019-05-20T12:05:02.675Z,17.78
2019-05-20T12:07:31.432Z,17.71
2019-05-20T12:10:00.322Z,17.66
2019-05-20T12:12:29.076Z,17.51
2019-05-20T12:14:57.729Z,17.38
2019-05-20T12:17:26.452Z,16.92
2019-05-20T12:19:55.442Z,16.92
2019-05-20T12:22:24.289Z,16.65
2019-05-20T12:24:52.988Z,16.66
2019-05-20T12:27:21.760Z,16.48
2019-05-20T12:29:50.480Z,16.48
2019-05-20T12:32:19.135Z,16.40
2019-05-20T12:34:48.105Z,16.44
2019-05-20T12:37:16.895Z,16.49
2019-05-20T12:39:45.757Z,16.46
2019-05-20T12:42:14.869Z,16.39
2019-05-20T12:44:43.698Z,16.37
2019-05-20T12:47:12.479Z,16.54
2019-05-20T12:49:41.371Z,16.61
2019-05-20T12:52:10.098Z,16.54
2019-05-20T12:54:38.734Z,16.49
2019-05-20T12:57:07.324Z,16.46
2019-05-20T12:59:35.932Z,16.72
2019-05-20T13:02:04.685Z,16.96
2019-05-20T13:04:33.447Z,16.95
2019-05-20T13:07:06.587Z,16.95
2019-05-20T13:09:35.475Z,17.20
2019-05-20T13:12:04.165Z,17.03
2019-05-20T13:14:32.809Z,16.64
2019-05-20T13:17:01.470Z,16.49
2019-05-20T13:19:30.326Z,16.69
2019-05-20T13:21:59.021Z,17.01
2019-05-20T13:24:27.669Z,17.01
2019-05-20T13:26:56.441Z,17.10
2019-05-20T13:29:25.174Z,17.10
2019-05-20T13:31:55.410Z,16.80
2019-05-20T13:34:24.110Z,16.58
2019-05-20T13:36:54.995Z,16.42
2019-05-20T13:39:23.720Z,16.37
2019-05-20T13:41:55.744Z,16.25
2019-05-20T13:44:24.426Z,16.22
2019-05-20T13:46:53.106Z,16.13
2019-05-20T13:49:21.869Z,15.93
2019-05-20T13:51:50.555Z,15.84
2019-05-20T13:54:19.348Z,15.79
2019-05-20T13:56:48.301Z,15.87
2019-05-20T13:59:17.114Z,15.72
2019-05-20T14:01:45.810Z,15.70
2019-05-20T14:04:14.507Z,15.79
2019-05-20T14:06:43.276Z,16.11
2019-05-20T14:09:11.937Z,16.15
2019-05-20T14:11:40.864Z,15.95
2019-05-20T14:14:09.426Z,16.45
2019-05-20T14:16:38.228Z,16.83
2019-05-20T14:19:07.036Z,16.69
2019-05-20T14:21:36.326Z,16.44
2019-05-20T14:24:04.992Z,16.08
2019-05-20T14:26:33.827Z,15.79
2019-05-20T14:29:02.549Z,15.66
2019-05-20T14:31:31.309Z,15.80
2019-05-20T14:34:00.012Z,16.09
2019-05-20T14:36:39.331Z,16.68
2019-05-20T14:38:59.059Z,17.47
2019-05-20T14:41:27.945Z,17.46
2019-05-20T14:43:56.693Z,17.35
2019-05-20T14:46:25.346Z,17.47
2019-05-20T14:48:54.267Z,17.35
2019-05-20T14:51:22.899Z,16.92
2019-05-20T14:53:51.598Z,16.89
2019-05-20T14:56:20.340Z,16.82
2019-05-20T14:58:48.908Z,16.68
2019-05-20T15:01:17.635Z,16.99
2019-05-20T15:03:46.396Z,17.00
2019-05-20T15:06:15.129Z,16.93
2019-05-20T15:08:43.899Z,17.45
2019-05-20T15:11:12.704Z,17.45
2019-05-20T15:13:41.363Z,17.57
2019-05-20T15:16:10.080Z,17.60
2019-05-20T15:18:38.847Z,17.53
2019-05-20T15:21:07.514Z,18.03
2019-05-20T15:23:36.230Z,17.82
2019-05-20T15:26:04.969Z,17.96
2019-05-20T15:28:33.686Z,18.06
2019-05-20T15:31:02.430Z,18.61
2019-05-20T15:33:31.051Z,18.12
2019-05-20T15:35:59.701Z,18.64
2019-05-20T15:38:28.371Z,18.89
2019-05-20T15:40:57.091Z,18.78
2019-05-20T15:43:25.781Z,18.63
2019-05-20T15:45:54.426Z,18.55
2019-05-20T15:48:23.837Z,18.44
2019-05-20T15:50:52.476Z,18.27
2019-05-20T15:53:21.051Z,18.17
2019-05-20T15:55:51.470Z,18.14
2019-05-20T15:58:23.547Z,18.23
2019-05-20T16:00:51.953Z,18.26
2019-05-20T16:03:20.718Z,17.74
2019-05-20T16:05:49.413Z,17.69
2019-05-20T16:08:18.171Z,17.68
2019-05-20T16:10:46.936Z,17.56
2019-05-20T16:13:15.725Z,17.50
2019-05-20T16:15:44.548Z,17.48
2019-05-20T16:18:13.272Z,17.48
2019-05-20T16:20:41.952Z,17.38
2019-05-20T16:23:12.046Z,17.45
2019-05-20T16:25:40.803Z,17.38
2019-05-20T16:28:09.422Z,17.25
2019-05-20T16:30:38.190Z,17.23
2019-05-20T16:33:07.062Z,16.92
2019-05-20T16:35:35.708Z,16.82
2019-05-20T16:38:04.426Z,17.37
2019-05-20T16:40:35.733Z,17.21
2019-05-20T16:43:04.449Z,16.98
2019-05-20T16:45:33.234Z,16.98
2019-05-20T16:48:01.997Z,17.13
2019-05-20T16:50:32.084Z,17.05
2019-05-20T16:53:00.727Z,17.05
2019-05-20T16:55:29.449Z,17.22
2019-05-20T16:57:58.215Z,17.40
2019-05-20T17:00:31.819Z,17.43
2019-05-20T17:03:00.082Z,17.27
2019-05-20T17:05:36.054Z,17.17
2019-05-20T17:08:04.834Z,17.08
2019-05-20T17:10:33.530Z,17.13
2019-05-20T17:13:02.261Z,17.08
2019-05-20T17:15:31.029Z,17.07
2019-05-20T17:17:59.729Z,17.01
2019-05-20T17:20:28.433Z,17.04
2019-05-20T17:22:57.211Z,17.16
2019-05-20T17:25:25.956Z,17.05
2019-05-20T17:27:54.742Z,17.06
2019-05-20T17:30:23.630Z,16.92
2019-05-20T17:32:52.372Z,16.81
2019-05-20T17:35:21.181Z,17.09
2019-05-20T17:37:54.953Z,17.09
2019-05-20T17:40:22.149Z,16.95
2019-05-20T17:42:57.797Z,16.77
2019-05-20T17:45:26.533Z,16.70
2019-05-20T17:47:55.183Z,16.17
2019-05-20T17:50:23.954Z,16.17
2019-05-20T17:52:52.633Z,16.26
2019-05-20T17:55:21.304Z,16.41
2019-05-20T17:57:50.218Z,16.41
2019-05-20T18:00:20.494Z,16.54
2019-05-20T18:02:49.275Z,16.30
2019-05-20T18:05:26.123Z,16.30
2019-05-20T18:07:54.866Z,16.67
2019-05-20T18:10:26.574Z,16.65
2019-05-20T18:12:55.250Z,16.43
2019-05-20T18:15:35.706Z,16.12
2019-05-20T18:18:04.526Z,16.29
2019-05-20T18:20:33.268Z,16.42
2019-05-20T18:23:02.052Z,16.43
2019-05-20T18:25:36.314Z,16.04
2019-05-20T18:28:05.278Z,15.96
2019-05-20T18:30:37.079Z,16.00
2019-05-20T18:33:05.735Z,16.52
2019-05-20T18:35:40.089Z,16.51
2019-05-20T18:38:08.771Z,16.20
2019-05-20T18:40:37.573Z,15.65
2019-05-20T18:43:06.445Z,15.65
2019-05-20T18:45:35.160Z,15.39
2019-05-20T18:48:06.132Z,15.32
2019-05-20T18:50:34.893Z,15.28
2019-05-20T18:53:03.605Z,15.23
2019-05-20T18:55:35.046Z,15.53
2019-05-20T18:58:03.758Z,15.16
2019-05-20T19:00:36.910Z,15.12
2019-05-20T19:03:07.284Z,15.02
2019-05-20T19:05:36.013Z,15.18
2019-05-20T19:08:09.043Z,15.16
2019-05-20T19:10:42.604Z,14.95
2019-05-20T19:13:11.356Z,14.84
2019-05-20T19:15:45.891Z,14.98
2019-05-20T19:18:14.752Z,15.02
2019-05-20T19:20:43.497Z,14.97
2019-05-20T19:23:12.165Z,14.56
2019-05-20T19:25:43.844Z,14.72
2019-05-20T19:28:11.253Z,14.77
2019-05-20T19:30:39.978Z,14.68
2019-05-20T19:33:08.752Z,14.74
2019-05-20T19:35:37.588Z,14.66
2019-05-20T19:38:06.244Z,14.72
2019-05-20T19:40:35.215Z,14.94
2019-05-20T19:43:03.897Z,14.91
2019-05-20T19:45:32.756Z,14.98
2019-05-20T19:48:01.413Z,15.06
2019-05-20T19:50:30.234Z,15.11
2019-05-20T19:52:58.959Z,15.44
2019-05-20T19:55:27.729Z,15.59
2019-05-20T19:57:57.950Z,15.44
2019-05-20T20:00:26.684Z,15.02
2019-05-20T20:03:05.534Z,14.82
2019-05-20T20:05:36.873Z,14.63
2019-05-20T20:08:18.402Z,14.55
2019-05-20T20:10:47.387Z,14.55
2019-05-20T20:13:16.140Z,14.50
2019-05-20T20:15:44.872Z,14.51
2019-05-20T20:18:16.349Z,14.32
2019-05-20T20:20:45.091Z,14.17
2019-05-20T20:23:13.762Z,14.57
2019-05-20T20:25:42.541Z,14.88
2019-05-20T20:28:11.270Z,14.99
2019-05-20T20:30:39.862Z,14.61
2019-05-20T20:33:08.583Z,15.09
2019-05-20T20:35:38.480Z,14.66
2019-05-20T20:38:07.349Z,14.12
2019-05-20T20:40:36.093Z,14.16
2019-05-20T20:43:04.875Z,14.07
2019-05-20T20:45:33.600Z,14.40
2019-05-20T20:48:02.261Z,14.28
2019-05-20T20:50:31.026Z,14.38
2019-05-20T20:52:59.735Z,14.07
2019-05-20T20:55:28.461Z,14.12
2019-05-20T20:57:57.055Z,14.40
2019-05-20T21:00:25.706Z,14.52
2019-05-20T21:02:54.499Z,14.49
2019-05-20T21:05:23.206Z,14.36
2019-05-20T21:07:51.976Z,14.36
2019-05-20T21:10:20.605Z,14.29
2019-05-20T21:12:49.414Z,14.65
2019-05-20T21:15:18.105Z,14.53
2019-05-20T21:17:46.890Z,14.48
2019-05-20T21:20:15.841Z,14.58
2019-05-20T21:22:48.935Z,14.51
2019-05-20T21:25:17.665Z,14.32
2019-05-20T21:27:46.407Z,14.73
2019-05-20T21:30:15.158Z,14.35
2019-05-20T21:32:43.822Z,13.91
2019-05-20T21:35:12.591Z,14.06
2019-05-20T21:37:41.305Z,13.83
2019-05-20T21:40:10.070Z,13.95
2019-05-20T21:42:38.729Z,13.91
2019-05-20T21:45:08.444Z,13.59
2019-05-20T21:47:37.112Z,13.56
2019-05-20T21:50:07.311Z,13.37
2019-05-20T21:52:36.072Z,13.36
2019-05-20T21:55:06.876Z,13.44
2019-05-20T21:57:35.607Z,13.20
2019-05-20T22:00:08.373Z,13.29
2019-05-20T22:02:37.143Z,13.43
2019-05-20T22:05:06.835Z,13.65
2019-05-20T22:07:35.656Z,13.76
2019-05-20T22:10:06.907Z,13.74
2019-05-20T22:12:35.575Z,13.45
2019-05-20T22:15:06.023Z,13.69
2019-05-20T22:17:34.737Z,13.45
2019-05-20T22:20:04.624Z,13.19
2019-05-20T22:22:34.982Z,13.29
2019-05-20T22:25:03.798Z,13.22
2019-05-20T22:27:32.442Z,13.15
2019-05-20T22:30:01.100Z,13.41
2019-05-20T22:32:29.907Z,13.15
2019-05-20T22:34:58.632Z,13.63
2019-05-20T22:37:27.288Z,14.12
2019-05-20T22:39:56.105Z,13.81
2019-05-20T22:42:24.672Z,13.51
2019-05-20T22:44:53.372Z,13.44
2019-05-20T22:47:22.024Z,13.81
2019-05-20T22:49:50.934Z,13.73
2019-05-20T22:52:19.625Z,13.46
2019-05-20T22:54:48.401Z,13.10
2019-05-20T22:57:17.107Z,12.88
2019-05-20T22:59:45.686Z,12.77
2019-05-20T23:02:14.377Z,12.80
2019-05-20T23:04:43.120Z,12.78
2019-05-20T23:07:11.771Z,12.50
2019-05-20T23:09:40.481Z,12.62
2019-05-20T23:12:09.129Z,12.64
2019-05-20T23:14:37.903Z,12.61
2019-05-20T23:17:06.660Z,12.60
2019-05-20T23:19:35.423Z,12.67
2019-05-20T23:22:04.410Z,12.71
2019-05-20T23:24:33.091Z,12.78
2019-05-20T23:27:01.732Z,12.85
2019-05-20T23:29:30.436Z,12.60
2019-05-20T23:31:59.115Z,12.75
2019-05-20T23:34:27.855Z,12.63
2019-05-20T23:36:56.500Z,12.80
2019-05-20T23:39:25.261Z,12.89
2019-05-20T23:41:53.915Z,12.98
2019-05-20T23:44:22.487Z,12.97
2019-05-20T23:46:51.188Z,12.95
2019-05-20T23:49:19.904Z,12.90
2019-05-20T23:51:48.552Z,12.97
2019-05-20T23:54:17.249Z,12.99
2019-05-20T23:56:45.943Z,12.96
2019-05-20T23:59:14.624Z,12.87
